Time;durP1;ratioP1;P1;durP2;ratioP2;P2;SDS_P1;SDS_P2;PMS_P1;PMS_P2;Temp;Humidity;BMP_temperature;BMP_pressure;BME280_temperature;BME280_humidity;BME280_pressure;Samples;Min_cycle;Max_cycle;Signal;HPM_P1;HPM_P2
2024/01/27 00:02:53;;;;;;;8.90;1.90;;;;;;;4.45;81.46;100911.36;129943;1257;114808;-62
2024/01/27 00:05:55;;;;;;;8.50;1.30;;;;;;;4.47;81.72;100912.23;130001;1257;117070;-62
2024/01/27 00:08:57;;;;;;;7.90;1.40;;;;;;;4.48;81.54;100924.39;129941;1277;128755;-62
2024/01/27 00:11:59;;;;;;;9.60;1.00;;;;;;;4.50;81.51;100925.60;129953;1277;115086;-62
2024/01/27 00:15:01;;;;;;;7.10;1.00;;;;;;;4.53;81.45;100925.39;130018;1254;114694;-62
2024/01/27 00:18:03;;;;;;;5.70;1.20;;;;;;;4.55;81.32;100924.09;129944;1277;114740;-63
2024/01/27 00:21:06;;;;;;;7.00;2.10;;;;;;;4.58;81.50;100932.39;129990;1254;114625;-62
2024/01/27 00:24:08;;;;;;;5.80;1.50;;;;;;;4.61;81.42;100936.77;129960;1267;114732;-63
2024/01/27 00:27:10;;;;;;;4.40;1.10;;;;;;;4.62;81.13;100930.21;130014;1257;114802;-62
2024/01/27 00:30:12;;;;;;;7.20;1.20;;;;;;;4.64;81.02;100943.43;129694;1277;126440;-63
2024/01/27 00:33:14;;;;;;;5.20;1.30;;;;;;;4.66;81.11;100943.07;129933;1277;115262;-62
2024/01/27 00:36:17;;;;;;;6.20;1.20;;;;;;;4.67;80.93;100946.05;130113;1257;114695;-62
2024/01/27 00:39:20;;;;;;;7.60;1.20;;;;;;;4.69;80.82;100948.34;129776;1257;114776;-62
2024/01/27 00:42:23;;;;;;;7.50;2.20;;;;;;;4.71;80.78;100950.07;129982;1257;114713;-63
2024/01/27 00:45:27;;;;;;;7.30;1.70;;;;;;;4.74;80.72;100950.02;129989;1257;114778;-62
2024/01/27 00:48:29;;;;;;;7.80;1.60;;;;;;;4.76;80.54;100950.71;129902;1257;115122;-62
2024/01/27 00:51:32;;;;;;;5.50;1.20;;;;;;;4.76;80.35;100950.17;129886;1257;114789;-62
2024/01/27 00:54:34;;;;;;;8.10;1.30;;;;;;;4.77;80.30;100958.30;130056;1257;114724;-62
2024/01/27 00:57:38;;;;;;;6.30;1.00;;;;;;;4.77;80.21;100957.94;129570;1254;114937;-62
2024/01/27 01:00:40;;;;;;;7.80;1.70;;;;;;;4.77;80.05;100950.15;129676;1254;114799;-63
2024/01/27 01:03:42;;;;;;;7.00;1.70;;;;;;;4.76;79.73;100949.12;129948;1257;115151;-63
2024/01/27 01:06:45;;;;;;;9.10;1.40;;;;;;;4.73;79.65;100951.81;129973;1258;114722;-62
2024/01/27 01:09:46;;;;;;;7.60;1.50;;;;;;;4.71;79.62;100949.19;129961;1255;114760;-63
2024/01/27 01:12:49;;;;;;;6.40;1.60;;;;;;;4.70;79.59;100947.97;129558;1257;114864;-64
2024/01/27 01:15:51;;;;;;;8.00;1.70;;;;;;;4.71;79.69;100954.83;129747;1277;114853;-64
2024/01/27 01:18:53;;;;;;;5.70;0.90;;;;;;;4.74;79.84;100956.76;130112;1258;114722;-63
2024/01/27 01:21:56;;;;;;;3.70;1.20;;;;;;;4.75;79.64;100965.06;130006;1259;115465;-62
2024/01/27 01:24:58;;;;;;;7.10;1.40;;;;;;;4.76;79.64;100975.83;130052;1277;115062;-65
2024/01/27 01:28:00;;;;;;;8.50;1.20;;;;;;;4.76;79.58;100974.41;130064;1267;114776;-64
2024/01/27 01:31:02;;;;;;;13.90;1.80;;;;;;;4.76;79.42;100981.16;129986;1254;114725;-62
2024/01/27 01:34:05;;;;;;;8.20;1.70;;;;;;;4.75;79.47;100977.07;129871;1267;114788;-64
2024/01/27 01:37:07;;;;;;;12.60;1.50;;;;;;;4.74;79.33;100979.56;129683;1258;114904;-63
2024/01/27 01:40:09;;;;;;;10.60;1.20;;;;;;;4.71;79.12;100975.73;130094;1254;114714;-63
2024/01/27 01:43:12;;;;;;;9.60;2.70;;;;;;;4.65;79.00;100972.63;130073;1257;114694;-64
2024/01/27 01:46:14;;;;;;;8.50;1.80;;;;;;;4.58;78.93;100974.84;130083;1254;114953;-64
2024/01/27 01:49:16;;;;;;;6.10;1.60;;;;;;;4.52;78.99;100971.39;129816;1277;130044;-62
2024/01/27 01:52:20;;;;;;;6.80;1.30;;;;;;;4.46;78.81;100974.32;129994;1277;114837;-64
2024/01/27 01:55:22;;;;;;;8.70;1.60;;;;;;;4.38;78.79;100980.94;129947;1254;114739;-63
2024/01/27 01:58:24;;;;;;;9.30;1.70;;;;;;;4.31;78.94;100983.51;129904;1258;114741;-62
2024/01/27 02:01:26;;;;;;;6.10;1.30;;;;;;;4.25;79.01;100975.81;129603;1277;115117;-63
2024/01/27 02:04:28;;;;;;;8.60;1.60;;;;;;;4.18;78.57;100978.38;129819;1257;114795;-62
2024/01/27 02:07:30;;;;;;;7.30;1.10;;;;;;;4.10;78.66;100977.22;129900;1257;115602;-62
2024/01/27 02:10:36;;;;;;;6.40;1.20;;;;;;;4.03;78.62;100975.89;129592;1277;128456;-62
2024/01/27 02:13:38;;;;;;;6.10;1.70;;;;;;;3.96;78.73;100983.92;129980;1268;114696;-63
2024/01/27 02:16:41;;;;;;;6.80;2.10;;;;;;;3.91;78.73;100986.98;129673;1277;114789;-63
2024/01/27 02:19:43;;;;;;;9.90;1.80;;;;;;;3.86;78.75;100996.41;129915;1262;114831;-63
2024/01/27 02:22:45;;;;;;;5.20;0.80;;;;;;;3.82;78.83;100995.20;129952;1271;115201;-66
2024/01/27 02:25:48;;;;;;;5.70;1.50;;;;;;;3.79;78.65;100997.72;129733;1257;114723;-62
2024/01/27 02:28:50;;;;;;;6.10;1.20;;;;;;;3.78;78.69;101001.61;129846;1257;115208;-63
2024/01/27 02:31:52;;;;;;;6.40;1.60;;;;;;;3.79;78.78;101004.61;129997;1260;114758;-62
2024/01/27 02:34:54;;;;;;;6.20;1.40;;;;;;;3.79;78.77;101001.08;129691;1277;115303;-62
2024/01/27 02:37:56;;;;;;;9.20;1.40;;;;;;;3.82;78.74;101006.88;129924;1257;115064;-62
2024/01/27 02:40:58;;;;;;;9.30;1.70;;;;;;;3.85;78.84;101010.20;129974;1258;114782;-63
2024/01/27 02:43:59;;;;;;;4.70;1.00;;;;;;;3.87;78.78;101014.41;129840;1268;115353;-63
2024/01/27 02:47:02;;;;;;;8.40;1.20;;;;;;;3.90;78.71;101018.09;129804;1257;116139;-62
2024/01/27 02:50:06;;;;;;;7.60;1.20;;;;;;;3.92;78.66;101025.14;129909;1270;114757;-62
2024/01/27 02:53:08;;;;;;;7.50;1.40;;;;;;;3.93;78.47;101027.78;130019;1258;128826;-62
2024/01/27 02:56:10;;;;;;;4.70;0.70;;;;;;;3.96;78.43;101043.14;129910;1258;115180;-62
2024/01/27 02:59:12;;;;;;;8.20;1.00;;;;;;;3.99;78.55;101049.47;129992;1257;115313;-62
2024/01/27 03:02:15;;;;;;;9.10;1.50;;;;;;;4.02;78.34;101054.56;130077;1254;114732;-62
2024/01/27 03:05:17;;;;;;;7.10;1.00;;;;;;;4.06;78.29;101061.77;130076;1254;115070;-62
2024/01/27 03:08:20;;;;;;;8.80;1.00;;;;;;;4.10;78.03;101073.56;129958;1257;115217;-62
2024/01/27 03:11:22;;;;;;;10.80;2.00;;;;;;;4.14;78.10;101069.46;129948;1254;115717;-61
2024/01/27 03:14:24;;;;;;;10.30;1.80;;;;;;;4.17;77.79;101064.83;129928;1273;128858;-61
2024/01/27 03:17:26;;;;;;;8.50;1.70;;;;;;;4.19;77.58;101074.17;129839;1273;116389;-62
2024/01/27 03:20:28;;;;;;;6.00;1.90;;;;;;;4.21;77.60;101069.02;130001;1258;114811;-61
2024/01/27 03:23:30;;;;;;;11.00;1.90;;;;;;;4.23;77.41;101072.55;129898;1254;114744;-61
2024/01/27 03:26:32;;;;;;;11.00;1.50;;;;;;;4.25;77.54;101071.98;129668;1257;114711;-61
2024/01/27 03:29:34;;;;;;;7.40;1.90;;;;;;;4.26;77.28;101070.73;129753;1257;114749;-61
2024/01/27 03:32:36;;;;;;;5.10;1.20;;;;;;;4.28;77.35;101075.51;129469;1254;116352;-62
2024/01/27 03:35:42;;;;;;;9.90;1.40;;;;;;;4.30;77.07;101075.48;129840;1253;115350;-62
2024/01/27 03:38:44;;;;;;;;;;;;;;;4.31;77.07;101077.23;129653;1260;114872;-61
2024/01/27 03:41:46;;;;;;;7.40;1.20;;;;;;;4.30;76.68;101075.84;129845;1277;114958;-61
2024/01/27 03:44:48;;;;;;;7.80;1.70;;;;;;;4.31;76.58;101074.05;129912;1254;114767;-61
2024/01/27 03:47:50;;;;;;;8.00;1.70;;;;;;;4.31;76.49;101072.30;129884;1257;115287;-61
2024/01/27 03:50:52;;;;;;;10.30;2.10;;;;;;;4.31;76.50;101073.34;129847;1258;114815;-61
2024/01/27 03:53:54;;;;;;;7.30;0.90;;;;;;;4.32;76.43;101081.29;129999;1257;114809;-62
2024/01/27 03:56:56;;;;;;;10.40;1.60;;;;;;;4.32;76.22;101084.64;129839;1277;128752;-61
2024/01/27 03:59:58;;;;;;;6.40;1.10;;;;;;;4.32;76.20;101087.82;129802;1259;114658;-61
2024/01/27 04:03:01;;;;;;;7.60;1.20;;;;;;;4.32;75.97;101092.07;130062;1254;114909;-61
2024/01/27 04:06:03;;;;;;;7.40;1.80;;;;;;;4.33;76.02;101098.07;130204;1256;114784;-61
2024/01/27 04:09:09;;;;;;;7.70;1.80;;;;;;;4.33;75.73;101102.14;130025;1257;114730;-61
2024/01/27 04:12:11;;;;;;;8.80;1.90;;;;;;;4.33;75.96;101101.79;130017;1277;114753;-62
2024/01/27 04:15:13;;;;;;;8.60;1.30;;;;;;;4.33;75.87;101104.97;129856;1277;114702;-61
2024/01/27 04:18:16;;;;;;;5.60;0.70;;;;;;;4.33;75.74;101105.68;130091;1254;114784;-61
2024/01/27 04:21:18;;;;;;;9.10;1.30;;;;;;;4.32;75.59;101104.09;130023;1269;114713;-62
2024/01/27 04:24:20;;;;;;;5.90;1.60;;;;;;;4.30;75.47;101106.08;129953;1257;115073;-61
2024/01/27 04:27:27;;;;;;;7.60;1.20;;;;;;;4.28;75.23;101110.86;129960;1270;114800;-62
2024/01/27 04:30:29;;;;;;;7.00;1.20;;;;;;;4.26;75.12;101109.47;129572;1254;115100;-62
2024/01/27 04:33:31;;;;;;;6.20;1.20;;;;;;;4.25;75.28;101107.35;129839;1253;114751;-62
2024/01/27 04:36:34;;;;;;;6.60;1.60;;;;;;;4.24;75.06;101111.96;130062;1259;114737;-63
2024/01/27 04:39:37;;;;;;;5.90;1.60;;;;;;;4.22;74.90;101111.46;129758;1275;128893;-62
2024/01/27 04:42:40;;;;;;;10.30;1.60;;;;;;;4.20;75.08;101116.26;129924;1258;115289;-62
2024/01/27 04:45:42;;;;;;;7.00;1.80;;;;;;;4.20;74.99;101119.61;129960;1259;114764;-61
2024/01/27 04:48:44;;;;;;;8.10;1.30;;;;;;;4.21;74.93;101124.38;129942;1257;114768;-63
2024/01/27 04:51:47;;;;;;;6.60;1.30;;;;;;;4.20;74.91;101130.75;129935;1257;114706;-61
2024/01/27 04:54:49;;;;;;;6.60;1.00;;;;;;;4.21;74.64;101126.85;129825;1270;114709;-62
2024/01/27 04:57:51;;;;;;;6.90;1.80;;;;;;;4.20;74.72;101125.63;129809;1257;114742;-66
2024/01/27 05:00:53;;;;;;;8.90;1.30;;;;;;;4.21;74.63;101122.79;130018;1256;114732;-62
2024/01/27 05:03:55;;;;;;;7.30;0.90;;;;;;;4.21;74.51;101120.85;129896;1277;114735;-62
2024/01/27 05:06:58;;;;;;;11.30;1.70;;;;;;;4.21;74.57;101124.38;129769;1257;114776;-62
2024/01/27 05:10:00;;;;;;;8.70;1.00;;;;;;;4.22;74.47;101118.88;129916;1272;114708;-63
2024/01/27 05:13:03;;;;;;;9.40;1.30;;;;;;;4.22;74.39;101114.63;129892;1257;114789;-61
2024/01/27 05:16:05;;;;;;;7.70;1.70;;;;;;;4.22;74.47;101117.11;129983;1254;114697;-61
2024/01/27 05:19:07;;;;;;;8.10;1.40;;;;;;;4.22;74.41;101120.84;129962;1257;114715;-61
2024/01/27 05:22:09;;;;;;;8.30;1.40;;;;;;;4.21;74.09;101117.30;129855;1260;114793;-65
2024/01/27 05:25:12;;;;;;;9.40;1.50;;;;;;;4.21;73.99;101124.91;129907;1277;114837;-61
2024/01/27 05:28:14;;;;;;;9.10;1.60;;;;;;;4.20;74.14;101123.67;129934;1270;114740;-61
2024/01/27 05:31:16;;;;;;;13.50;1.90;;;;;;;4.19;74.06;101125.45;129900;1257;114818;-62
2024/01/27 05:34:20;;;;;;;9.90;1.20;;;;;;;4.19;73.93;101124.58;130099;1258;114700;-61
2024/01/27 05:37:23;;;;;;;8.50;1.40;;;;;;;4.16;74.09;101124.60;129570;1257;116532;-61
2024/01/27 05:40:25;;;;;;;11.80;2.60;;;;;;;4.14;73.96;101126.04;129882;1260;115096;-62
2024/01/27 05:43:27;;;;;;;7.60;1.60;;;;;;;4.10;73.75;101125.89;130081;1260;114744;-62
2024/01/27 05:46:29;;;;;;;7.20;1.70;;;;;;;4.09;73.91;101132.26;130072;1253;114706;-63
2024/01/27 05:49:32;;;;;;;8.20;1.20;;;;;;;4.08;73.73;101127.14;130079;1257;114710;-63
2024/01/27 05:52:35;;;;;;;10.20;1.30;;;;;;;4.06;73.57;101134.40;130003;1257;114709;-62
2024/01/27 05:55:37;;;;;;;8.50;1.30;;;;;;;4.04;73.52;101132.85;129755;1259;114754;-62
2024/01/27 05:58:39;;;;;;;5.00;1.10;;;;;;;4.01;73.58;101138.88;129941;1258;114807;-62
2024/01/27 06:01:53;;;;;;;9.40;1.70;;;;;;;3.98;73.66;101138.90;129917;1262;128389;-62
2024/01/27 06:04:55;;;;;;;12.30;1.50;;;;;;;3.96;73.74;101147.76;130011;1254;114701;-63
2024/01/27 06:07:57;;;;;;;8.30;1.20;;;;;;;3.94;73.50;101153.60;130056;1257;114702;-62
2024/01/27 06:10:59;;;;;;;10.00;1.60;;;;;;;3.94;73.73;101162.45;129868;1258;115350;-63
2024/01/27 06:14:01;;;;;;;8.70;1.50;;;;;;;3.93;73.76;101160.86;129874;1257;114731;-63
2024/01/27 06:17:05;;;;;;;5.20;1.40;;;;;;;3.91;73.92;101164.59;129933;1254;114831;-63
2024/01/27 06:20:08;;;;;;;4.50;1.70;;;;;;;3.90;73.94;101178.02;129906;1257;114677;-62
2024/01/27 06:23:10;;;;;;;8.00;1.50;;;;;;;3.90;73.76;101183.67;129880;1254;115084;-64
2024/01/27 06:26:13;;;;;;;6.10;1.30;;;;;;;3.89;73.85;101188.28;129919;1257;116891;-63
2024/01/27 06:29:18;;;;;;;9.10;1.50;;;;;;;3.89;74.00;101193.23;129921;1277;114760;-61
2024/01/27 06:32:20;;;;;;;5.30;1.30;;;;;;;3.89;73.94;101197.64;129645;1259;114705;-63
2024/01/27 06:35:22;;;;;;;9.00;1.90;;;;;;;3.89;73.94;101203.67;130081;1259;114802;-61
2024/01/27 06:38:24;;;;;;;8.20;1.80;;;;;;;3.89;73.96;101195.87;130053;1260;114967;-63
2024/01/27 06:41:26;;;;;;;9.90;1.30;;;;;;;3.90;74.00;101191.81;130105;1253;114718;-62
2024/01/27 06:44:28;;;;;;;13.50;2.10;;;;;;;3.91;74.22;101187.55;129892;1258;115281;-62
2024/01/27 06:47:30;;;;;;;8.30;1.40;;;;;;;3.92;74.04;101185.09;130015;1254;114785;-63
2024/01/27 06:50:33;;;;;;;5.90;1.20;;;;;;;3.92;74.13;101173.23;129606;1269;114831;-62
2024/01/27 06:53:35;;;;;;;7.80;1.80;;;;;;;3.92;74.08;101175.01;129982;1255;114777;-64
2024/01/27 06:56:37;;;;;;;7.10;1.10;;;;;;;3.92;74.17;101179.25;130040;1257;114780;-62
2024/01/27 06:59:38;;;;;;;8.90;1.90;;;;;;;3.92;74.08;101186.84;130064;1258;114800;-63
2024/01/27 07:02:43;;;;;;;8.40;1.40;;;;;;;3.93;74.18;101181.53;129857;1258;114666;-63
2024/01/27 07:05:45;;;;;;;11.50;1.10;;;;;;;3.93;74.24;101185.95;129517;1277;128424;-63
2024/01/27 07:08:47;;;;;;;9.40;1.80;;;;;;;3.93;74.40;101188.77;129849;1277;114732;-63
2024/01/27 07:11:52;;;;;;;10.20;1.70;;;;;;;3.95;74.20;101192.84;130005;1277;114776;-62
2024/01/27 07:14:57;;;;;;;8.90;1.80;;;;;;;3.96;74.20;101185.41;130056;1253;114734;-62
2024/01/27 07:17:59;;;;;;;9.90;1.50;;;;;;;3.97;74.33;101185.05;129936;1254;114775;-62
2024/01/27 07:21:01;;;;;;;9.80;1.80;;;;;;;3.99;74.25;101182.02;129888;1258;115304;-62
2024/01/27 07:24:04;;;;;;;9.90;1.70;;;;;;;4.01;74.29;101188.37;129951;1257;114673;-62
2024/01/27 07:27:06;;;;;;;8.10;1.40;;;;;;;4.03;74.29;101190.48;129988;1253;114714;-62
2024/01/27 07:30:09;;;;;;;34.80;10.30;;;;;;;4.06;74.47;101195.04;129757;1277;114830;-62
2024/01/27 07:33:11;;;;;;;36.30;13.40;;;;;;;4.08;74.24;101190.42;130027;1257;114706;-62
2024/01/27 07:36:13;;;;;;;16.60;7.70;;;;;;;4.12;74.40;101185.10;130020;1258;115150;-63
2024/01/27 07:39:15;;;;;;;13.50;3.50;;;;;;;4.15;74.37;101192.67;129795;1254;114790;-63
2024/01/27 07:42:17;;;;;;;9.20;2.50;;;;;;;4.15;74.23;101200.44;129783;1277;114702;-61
2024/01/27 07:45:19;;;;;;;11.30;4.60;;;;;;;4.16;73.94;101208.56;129880;1257;115080;-61
2024/01/27 07:48:22;;;;;;;25.50;5.70;;;;;;;4.17;74.16;101216.89;130092;1277;114867;-65
2024/01/27 07:51:24;;;;;;;10.90;2.60;;;;;;;4.16;74.21;101220.23;129597;1254;116462;-65
2024/01/27 07:54:26;;;;;;;5.70;2.00;;;;;;;4.18;74.34;101230.83;129855;1257;114794;-62
2024/01/27 07:57:28;;;;;;;9.80;2.20;;;;;;;4.19;74.05;101221.11;130069;1253;115137;-67
2024/01/27 08:00:31;;;;;;;8.50;1.90;;;;;;;4.21;74.15;101221.27;130011;1253;114983;-65
2024/01/27 08:03:33;;;;;;;12.60;3.10;;;;;;;4.24;74.29;101223.89;129976;1257;114795;-67
2024/01/27 08:06:46;;;;;;;5.30;1.30;;;;;;;4.28;74.29;101231.29;129992;1254;114715;-64
2024/01/27 08:09:48;;;;;;;6.60;1.90;;;;;;;4.30;73.95;101240.83;129944;1277;114689;-64
2024/01/27 08:12:50;;;;;;;11.00;2.70;;;;;;;4.31;74.13;101245.58;129852;1257;114795;-63
2024/01/27 08:15:52;;;;;;;6.80;2.60;;;;;;;4.34;74.11;101246.79;129883;1257;114776;-66
2024/01/27 08:18:55;;;;;;;10.00;2.20;;;;;;;4.38;74.08;101249.23;129650;1257;115218;-64
2024/01/27 08:21:57;;;;;;;10.10;2.20;;;;;;;4.42;74.28;101243.54;130105;1258;114707;-62
2024/01/27 08:25:00;;;;;;;14.30;2.90;;;;;;;4.46;74.24;101243.86;130053;1257;114709;-64
2024/01/27 08:28:03;;;;;;;16.10;2.80;;;;;;;4.50;74.14;101247.89;130077;1269;114707;-66
2024/01/27 08:31:05;;;;;;;8.50;2.10;;;;;;;4.55;74.21;101261.46;129625;1262;116328;-65
2024/01/27 08:34:07;;;;;;;10.00;2.30;;;;;;;4.58;74.25;101262.86;129884;1257;115357;-64
2024/01/27 08:37:18;;;;;;;10.00;2.10;;;;;;;4.61;74.05;101268.67;129943;1257;114782;-63
2024/01/27 08:40:20;;;;;;;16.20;3.20;;;;;;;4.62;73.95;101270.61;130018;1254;114782;-62
2024/01/27 08:43:22;;;;;;;11.20;3.50;;;;;;;4.64;73.92;101275.53;129902;1259;114703;-61
2024/01/27 08:46:24;;;;;;;12.70;3.50;;;;;;;4.68;73.96;101269.84;129903;1257;115290;-64
2024/01/27 08:49:26;;;;;;;7.60;1.60;;;;;;;4.71;73.91;101279.38;129814;1277;128723;-62
2024/01/27 08:52:28;;;;;;;13.60;3.80;;;;;;;4.74;73.83;101273.85;130028;1258;114738;-63
2024/01/27 08:55:30;;;;;;;11.20;3.70;;;;;;;4.77;73.79;101273.64;129926;1257;115511;-62
2024/01/27 08:58:32;;;;;;;16.60;4.20;;;;;;;4.80;73.53;101271.33;129797;1258;114792;-62
2024/01/27 09:01:34;;;;;;;13.10;3.60;;;;;;;4.82;73.36;101278.73;130057;1259;114776;-62
2024/01/27 09:04:36;;;;;;;11.30;3.10;;;;;;;4.84;73.55;101270.57;130100;1254;114796;-63
2024/01/27 09:07:38;;;;;;;21.80;4.00;;;;;;;4.87;73.67;101274.27;129936;1254;114869;-62
2024/01/27 09:10:40;;;;;;;19.90;5.10;;;;;;;4.91;73.43;101271.56;129932;1257;114770;-63
2024/01/27 09:13:44;;;;;;;17.60;4.20;;;;;;;4.95;73.37;101268.52;130025;1260;114690;-62
2024/01/27 09:16:47;;;;;;;11.60;3.20;;;;;;;4.98;73.36;101277.14;130121;1270;115074;-62
2024/01/27 09:19:49;;;;;;;14.60;2.80;;;;;;;5.03;73.21;101283.84;130018;1273;114759;-61
2024/01/27 09:22:51;;;;;;;16.00;4.00;;;;;;;5.05;73.11;101289.65;130003;1255;114742;-62
2024/01/27 09:25:53;;;;;;;14.30;3.50;;;;;;;5.08;73.06;101298.30;129929;1253;114817;-62
2024/01/27 09:28:56;;;;;;;9.80;2.50;;;;;;;5.11;73.13;101304.82;130021;1257;114740;-61
2024/01/27 09:31:58;;;;;;;23.60;4.70;;;;;;;5.14;73.15;101300.88;129977;1258;114700;-62
2024/01/27 09:35:00;;;;;;;24.60;6.40;;;;;;;5.16;72.84;101309.89;129981;1259;115146;-62
2024/01/27 09:38:02;;;;;;;10.10;3.20;;;;;;;5.16;72.85;101310.06;130077;1272;114776;-61
2024/01/27 09:41:05;;;;;;;11.90;2.90;;;;;;;5.18;72.74;101314.11;130081;1254;114782;-61
2024/01/27 09:44:07;;;;;;;14.20;3.60;;;;;;;5.21;72.63;101319.06;129803;1262;114706;-62
2024/01/27 09:47:10;;;;;;;9.60;4.30;;;;;;;5.25;72.90;101328.40;129772;1258;114803;-62
2024/01/27 09:50:12;;;;;;;8.90;2.70;;;;;;;5.27;72.77;101335.64;130078;1258;114715;-63
2024/01/27 09:53:14;;;;;;;14.20;3.90;;;;;;;5.28;72.50;101352.10;129776;1260;115461;-63
2024/01/27 09:56:20;;;;;;;9.50;2.70;;;;;;;5.32;72.53;101357.55;130129;1258;116023;-64
2024/01/27 09:59:25;;;;;;;12.50;2.60;;;;;;;5.37;72.61;101358.02;129922;1277;114757;-64
2024/01/27 10:02:27;;;;;;;11.50;2.60;;;;;;;5.40;72.49;101359.23;130139;1253;114761;-63
2024/01/27 10:05:30;;;;;;;9.00;2.30;;;;;;;5.46;72.55;101351.73;129970;1253;114802;-62
2024/01/27 10:08:32;;;;;;;7.70;2.00;;;;;;;5.51;72.50;101356.27;130022;1257;114712;-62
2024/01/27 10:11:35;;;;;;;9.90;2.00;;;;;;;5.54;72.30;101362.43;130031;1258;115486;-67
2024/01/27 10:14:41;;;;;;;12.20;2.20;;;;;;;5.59;72.36;101368.77;130066;1259;129478;-66
2024/01/27 10:17:43;;;;;;;7.80;1.60;;;;;;;5.71;72.12;101375.52;129579;1262;114836;-61
2024/01/27 10:20:46;;;;;;;6.60;1.40;;;;;;;5.83;72.17;101369.89;129994;1257;115084;-63
2024/01/27 10:23:49;;;;;;;9.80;2.00;;;;;;;5.90;71.99;101371.74;129892;1259;114751;-60
2024/01/27 10:26:51;;;;;;;9.00;1.90;;;;;;;5.94;71.89;101364.80;129918;1274;115266;-61
2024/01/27 10:29:57;;;;;;;8.60;2.60;;;;;;;6.00;71.82;101348.23;129892;1256;115109;-62
2024/01/27 10:32:59;;;;;;;11.20;1.50;;;;;;;6.18;72.04;101360.23;129653;1262;127735;-62
2024/01/27 10:36:02;;;;;;;7.80;2.40;;;;;;;6.33;71.71;101358.80;129894;1258;114845;-62
2024/01/27 10:39:23;;;;;;;7.30;2.40;;;;;;;6.42;71.46;101359.02;130130;1259;114640;-61
2024/01/27 10:42:28;;;;;;;10.70;3.00;;;;;;;6.48;71.28;101348.27;129819;1259;115380;-62
2024/01/27 10:45:39;;;;;;;9.50;2.10;;;;;;;6.51;71.02;101354.42;129805;1278;114805;-61
2024/01/27 10:48:42;;;;;;;9.80;2.30;;;;;;;6.50;70.72;101349.83;129487;1277;128372;-62
2024/01/27 10:51:46;;;;;;;5.00;1.70;;;;;;;6.47;70.65;101351.98;129713;1261;114748;-63
2024/01/27 10:54:49;;;;;;;8.70;2.50;;;;;;;6.45;70.22;101347.07;130047;1259;114987;-62
2024/01/27 10:57:54;;;;;;;5.80;2.10;;;;;;;6.47;70.26;101331.94;129836;1270;114892;-62
2024/01/27 11:00:56;;;;;;;8.10;1.70;;;;;;;6.52;69.93;101339.31;129642;1257;116333;-61
2024/01/27 11:03:59;;;;;;;10.30;2.20;;;;;;;6.57;69.98;101348.30;129883;1259;114789;-63
2024/01/27 11:07:01;;;;;;;9.30;2.00;;;;;;;6.63;69.90;101344.49;129812;1277;114686;-62
2024/01/27 11:10:04;;;;;;;7.50;1.70;;;;;;;6.67;70.07;101344.59;130059;1253;115033;-62
2024/01/27 11:13:07;;;;;;;10.70;1.90;;;;;;;6.69;69.97;101349.00;129590;1259;320370;-61
2024/01/27 11:16:19;;;;;;;9.20;1.90;;;;;;;6.73;69.89;101343.60;129910;1259;114783;-63
2024/01/27 11:19:21;;;;;;;8.80;2.20;;;;;;;6.75;69.52;101340.38;129700;1254;114838;-61
2024/01/27 11:22:28;;;;;;;9.00;2.30;;;;;;;6.80;69.45;101344.73;129876;1254;114770;-61
2024/01/27 11:25:30;;;;;;;7.90;2.30;;;;;;;6.87;69.64;101347.98;129908;1259;114966;-61
2024/01/27 11:28:32;;;;;;;7.90;3.00;;;;;;;6.97;69.09;101358.47;129936;1258;114707;-61
2024/01/27 11:31:35;;;;;;;6.80;2.70;;;;;;;7.05;68.98;101356.00;129953;1257;114686;-62
2024/01/27 11:34:45;;;;;;;9.00;2.70;;;;;;;7.09;69.10;101368.39;129573;1259;114784;-61
2024/01/27 11:37:48;;;;;;;8.90;2.50;;;;;;;7.14;68.93;101367.05;129632;1277;114862;-76
2024/01/27 11:40:50;;;;;;;10.00;2.80;;;;;;;7.22;69.13;101372.06;130337;1253;114628;-74
2024/01/27 11:43:56;;;;;;;13.30;3.00;;;;;;;7.34;69.18;101375.20;130107;1259;116140;-76
2024/01/27 11:46:59;;;;;;;8.00;1.90;;;;;;;7.45;68.74;101373.93;130022;1270;114883;-68
2024/01/27 11:50:03;;;;;;;13.50;2.40;;;;;;;7.54;68.20;101373.05;130044;1257;115068;-75
2024/01/27 11:53:09;;;;;;;8.90;2.10;;;;;;;7.59;67.75;101376.68;130421;1259;114925;-76
2024/01/27 11:56:11;;;;;;;9.90;2.90;;;;;;;7.58;67.58;101380.07;129957;1277;114890;-73
2024/01/27 11:59:14;;;;;;;8.80;2.80;;;;;;;7.64;67.86;101385.30;130201;1260;114715;-74
2024/01/27 12:02:17;;;;;;;14.40;3.70;;;;;;;7.71;67.89;101387.48;130137;1259;115180;-72
2024/01/27 12:05:19;;;;;;;9.90;4.30;;;;;;;7.75;67.52;101385.62;130261;1254;115253;-73
2024/01/27 12:08:21;;;;;;;11.10;2.80;;;;;;;7.80;67.61;101390.33;130088;1263;115244;-75
2024/01/27 12:11:26;;;;;;;9.10;2.70;;;;;;;7.78;66.99;101398.73;130313;1259;114689;-75
2024/01/27 12:14:41;;;;;;;8.50;2.30;;;;;;;7.73;66.83;101394.19;130327;1258;114985;-74
2024/01/27 12:17:49;;;;;;;9.60;2.70;;;;;;;7.74;66.63;101393.98;130288;1254;129037;-75
2024/01/27 12:20:57;;;;;;;13.30;2.50;;;;;;;7.77;66.73;101405.86;130414;1272;114787;-73
2024/01/27 12:23:59;;;;;;;8.50;2.30;;;;;;;7.82;66.43;101406.99;130189;1253;115060;-75
2024/01/27 12:27:01;;;;;;;7.10;1.50;;;;;;;7.89;66.66;101415.21;130249;1270;115160;-75
2024/01/27 12:30:04;;;;;;;11.20;2.10;;;;;;;7.91;66.14;101420.33;130317;1253;114712;-76
2024/01/27 12:33:12;;;;;;;7.40;2.20;;;;;;;7.91;65.95;101427.63;130075;1262;116557;-75
2024/01/27 12:36:14;;;;;;;13.00;2.50;;;;;;;7.91;65.71;101430.46;129984;1264;127875;-75
2024/01/27 12:39:15;;;;;;;14.30;3.00;;;;;;;7.97;66.17;101437.81;130185;1259;114726;-75
2024/01/27 12:42:18;;;;;;;13.50;3.30;;;;;;;8.03;65.54;101446.23;130018;1262;114842;-75
2024/01/27 12:45:20;;;;;;;8.40;2.20;;;;;;;8.09;66.12;101450.05;129919;1262;114756;-74
2024/01/27 12:48:22;;;;;;;12.50;3.00;;;;;;;8.15;65.82;101454.19;130222;1277;114672;-75
2024/01/27 12:51:24;;;;;;;10.50;2.70;;;;;;;8.19;65.66;101456.75;130274;1277;114955;-73
2024/01/27 12:54:26;;;;;;;7.60;3.00;;;;;;;8.20;65.34;101467.23;130252;1259;114719;-75
2024/01/27 12:57:29;;;;;;;11.10;3.30;;;;;;;8.21;65.55;101473.80;130474;1275;114766;-73
2024/01/27 13:00:31;;;;;;;10.80;2.60;;;;;;;8.21;65.29;101471.13;131465;1253;116335;-69
2024/01/27 13:03:34;;;;;;;9.80;2.60;;;;;;;8.24;65.33;101480.70;130475;1256;114801;-71
2024/01/27 13:06:37;;;;;;;4.80;1.80;;;;;;;8.25;65.22;101481.73;130182;1272;114800;-71
2024/01/27 13:09:39;;;;;;;15.20;3.80;;;;;;;8.22;64.98;101483.04;129975;1259;114695;-69
2024/01/27 13:12:41;;;;;;;9.60;3.60;;;;;;;8.22;65.31;101483.92;130006;1264;114714;-68
2024/01/27 13:15:43;;;;;;;15.90;2.60;;;;;;;8.21;64.99;101485.36;130179;1276;114733;-75
2024/01/27 13:18:46;;;;;;;9.40;2.80;;;;;;;8.17;64.55;101487.77;130350;1256;127711;-72
2024/01/27 13:21:48;;;;;;;9.60;2.60;;;;;;;8.16;65.14;101486.36;129823;1256;114731;-71
2024/01/27 13:24:50;;;;;;;8.40;2.30;;;;;;;8.18;65.12;101484.91;129892;1257;114695;-69
2024/01/27 13:27:52;;;;;;;10.40;2.70;;;;;;;8.20;64.86;101486.11;129883;1253;114755;-73
2024/01/27 13:30:55;;;;;;;8.10;1.90;;;;;;;8.20;64.76;101489.83;130037;1256;114786;-71
2024/01/27 13:33:58;;;;;;;13.30;2.30;;;;;;;8.19;64.93;101491.27;129921;1269;114731;-70
2024/01/27 13:37:02;;;;;;;9.80;2.20;;;;;;;8.19;64.78;101491.45;130040;1276;114804;-70
2024/01/27 13:40:07;;;;;;;;;;;;;;;8.22;64.92;101499.77;130550;1259;114814;-72
2024/01/27 13:43:09;;;;;;;7.50;3.00;;;;;;;8.21;64.88;101499.42;130279;1261;115020;-70
2024/01/27 13:46:11;;;;;;;8.20;1.30;;;;;;;8.20;64.86;101505.68;130465;1276;114727;-70
2024/01/27 13:49:13;;;;;;;5.50;2.00;;;;;;;8.13;64.71;101511.70;130235;1275;114779;-70
2024/01/27 13:52:15;;;;;;;5.10;1.90;;;;;;;8.06;64.69;101513.07;130542;1256;114750;-73
2024/01/27 13:55:17;;;;;;;8.60;2.10;;;;;;;8.02;64.57;101514.20;130168;1276;114835;-76
2024/01/27 13:58:18;;;;;;;10.50;3.60;;;;;;;7.98;64.77;101526.05;130445;1259;114878;-71